Time;durP1;ratioP1;P1;durP2;ratioP2;P2;SDS_P1;SDS_P2;PMS_P1;PMS_P2;Temp;Humidity;BMP_temperature;BMP_pressure;BME280_temperature;BME280_humidity;BME280_pressure;Samples;Min_cycle;Max_cycle;Signal;HPM_P1;HPM_P2
2020/12/15 00:01:22;;;;;;;42.33;23.00;;;;;;;4.07;69.61;101006.78;1771713;81;21607;-57
2020/12/15 00:03:50;;;;;;;43.02;23.00;;;;;;;4.06;69.64;101001.92;1771823;80;21029;-57
2020/12/15 00:06:18;;;;;;;41.85;22.87;;;;;;;4.09;69.59;101007.39;1771622;80;21575;-56
2020/12/15 00:08:46;;;;;;;40.70;21.90;;;;;;;4.08;69.66;101003.88;1800365;79;21024;-57
2020/12/15 00:11:18;;;;;;;42.75;22.10;;;;;;;4.12;69.62;101008.34;1800008;79;21554;-58
2020/12/15 00:13:48;;;;;;;46.08;22.60;;;;;;;4.13;69.64;101010.82;1771424;80;21583;-57
2020/12/15 00:16:19;;;;;;;38.50;20.80;;;;;;;4.13;69.59;101012.17;1771761;81;20997;-57
2020/12/15 00:18:47;;;;;;;37.20;20.60;;;;;;;4.14;69.49;101010.30;1772161;80;21371;-57
2020/12/15 00:21:20;;;;;;;41.77;20.92;;;;;;;4.15;69.45;101010.09;1785935;80;21289;-55
2020/12/15 00:23:52;;;;;;;39.58;21.10;;;;;;;4.13;69.41;101008.12;1785712;80;21020;-57
2020/12/15 00:26:20;;;;;;;39.35;21.95;;;;;;;4.11;69.43;101014.77;1785849;80;21004;-56
2020/12/15 00:28:48;;;;;;;40.17;21.05;;;;;;;4.10;69.46;101008.53;1785802;80;20981;-59
2020/12/15 00:31:18;;;;;;;37.17;20.12;;;;;;;4.11;69.47;101014.77;1785787;80;21187;-58
2020/12/15 00:33:46;;;;;;;38.20;21.60;;;;;;;4.12;69.55;101017.25;1758012;80;21095;-57
2020/12/15 00:36:19;;;;;;;37.85;20.82;;;;;;;4.14;69.53;101024.59;1785859;80;21052;-56
2020/12/15 00:38:47;;;;;;;38.75;22.35;;;;;;;4.18;69.51;101032.27;1786046;79;21614;-56
2020/12/15 00:41:15;;;;;;;38.17;22.02;;;;;;;4.18;69.43;101034.44;1785871;80;21009;-56
2020/12/15 00:43:43;;;;;;;37.67;20.68;;;;;;;4.21;69.40;101035.88;1785603;80;21253;-57
2020/12/15 00:46:16;;;;;;;35.88;20.72;;;;;;;4.22;69.35;101035.70;1785955;80;20945;-56
2020/12/15 00:48:48;;;;;;;35.55;20.97;;;;;;;4.22;69.30;101028.96;1785768;80;21035;-56
2020/12/15 00:51:20;;;;;;;40.88;20.52;;;;;;;4.20;69.25;101026.97;1785757;80;21000;-57
2020/12/15 00:53:48;;;;;;;37.40;20.90;;;;;;;4.17;69.29;101034.14;1786178;80;20941;-56
2020/12/15 00:56:18;;;;;;;37.17;19.95;;;;;;;4.16;69.27;101033.31;1785754;80;22248;-56
2020/12/15 00:58:46;;;;;;;37.93;20.92;;;;;;;4.15;69.27;101034.32;1785870;80;21647;-55
2020/12/15 01:01:14;;;;;;;34.20;21.17;;;;;;;4.15;69.30;101032.98;1785870;80;21052;-58
2020/12/15 01:03:42;;;;;;;35.08;20.48;;;;;;;4.15;69.35;101027.59;1785917;79;20929;-56
2020/12/15 01:06:12;;;;;;;35.03;19.55;;;;;;;4.18;69.25;101033.62;1785842;79;20948;-57
2020/12/15 01:08:41;;;;;;;33.40;20.05;;;;;;;4.17;69.22;101030.09;1785823;80;21354;-57
2020/12/15 01:11:11;;;;;;;32.25;19.57;;;;;;;4.15;69.27;101024.89;1784635;80;21016;-57
2020/12/15 01:13:40;;;;;;;34.23;18.77;;;;;;;4.14;69.30;101026.45;1785875;80;21561;-57
2020/12/15 01:16:09;;;;;;;31.85;18.82;;;;;;;4.14;69.39;101031.84;1785925;80;20945;-57
2020/12/15 01:18:38;;;;;;;33.55;20.30;;;;;;;4.11;69.37;101031.75;1785724;80;21071;-56
2020/12/15 01:21:08;;;;;;;32.53;19.30;;;;;;;4.10;69.43;101024.69;1780854;80;21315;-57
2020/12/15 01:23:36;;;;;;;34.15;19.85;;;;;;;4.12;69.43;101029.37;1779299;80;21091;-58
2020/12/15 01:26:08;;;;;;;34.48;20.88;;;;;;;4.13;69.48;101021.59;1780123;80;20997;-56
2020/12/15 01:28:36;;;;;;;31.65;19.90;;;;;;;4.15;69.48;101024.89;1780053;80;21512;-58
2020/12/15 01:31:05;;;;;;;31.42;19.73;;;;;;;4.15;69.45;101026.77;1797466;79;21136;-57
2020/12/15 01:33:35;;;;;;;35.13;20.25;;;;;;;4.14;69.31;101029.98;1780829;79;21408;-57
2020/12/15 01:36:13;;;;;;;32.63;19.63;;;;;;;4.14;69.31;101021.90;1819937;77;22417;-58
2020/12/15 01:38:46;;;;;;;35.03;20.05;;;;;;;4.09;69.36;101020.34;1823132;78;21566;-57
2020/12/15 01:41:15;;;;;;;33.80;19.60;;;;;;;4.09;69.44;101018.17;1784995;80;21372;-57
2020/12/15 01:43:58;;;;;;;32.10;19.35;;;;;;;4.08;69.37;101015.17;1756410;81;20929;-56
2020/12/15 01:46:28;;;;;;;29.02;19.15;;;;;;;4.06;69.35;101015.39;1765999;81;21613;-56
2020/12/15 01:48:56;;;;;;;31.05;18.87;;;;;;;4.06;69.39;101016.73;1756471;81;21033;-58
2020/12/15 01:51:25;;;;;;;31.68;18.82;;;;;;;4.07;69.48;101017.04;1765871;81;20941;-56
2020/12/15 01:53:58;;;;;;;30.37;19.02;;;;;;;4.06;69.51;101014.04;1756163;81;21591;-57
2020/12/15 01:56:28;;;;;;;28.60;18.27;;;;;;;4.10;69.54;101018.47;1766016;81;21032;-56
2020/12/15 01:59:01;;;;;;;30.55;18.48;;;;;;;4.11;69.51;101017.47;1765933;81;21008;-54
2020/12/15 02:01:30;;;;;;;31.87;18.98;;;;;;;4.11;69.50;101016.94;1756315;81;21072;-56
2020/12/15 02:03:57;;;;;;;31.15;18.30;;;;;;;4.11;69.36;101022.84;1766210;81;21532;-56
2020/12/15 02:06:30;;;;;;;31.65;18.25;;;;;;;4.10;69.36;101022.52;1764740;81;21461;-56
2020/12/15 02:09:06;;;;;;;30.25;17.73;;;;;;;4.09;69.41;101016.82;1755104;81;21036;-57
2020/12/15 02:11:36;;;;;;;31.80;19.77;;;;;;;4.06;69.37;101018.08;1764745;81;21149;-57
2020/12/15 02:14:06;;;;;;;27.45;17.00;;;;;;;4.04;69.41;101016.09;1755768;81;21638;-54
2020/12/15 02:16:35;;;;;;;29.80;18.25;;;;;;;4.05;69.41;101014.23;1733991;82;21075;-57
2020/12/15 02:19:04;;;;;;;29.02;19.30;;;;;;;4.03;69.50;101010.40;1754754;81;21527;-57
2020/12/15 02:21:53;;;;;;;30.70;19.20;;;;;;;4.05;69.58;101017.74;1733314;82;20933;-56
2020/12/15 02:24:21;;;;;;;31.97;17.35;;;;;;;4.05;69.49;101014.23;1732784;82;20965;-57
2020/12/15 02:26:52;;;;;;;31.27;17.50;;;;;;;4.06;69.49;101018.08;1753766;81;20961;-56
2020/12/15 02:29:23;;;;;;;29.02;18.60;;;;;;;4.07;69.46;101022.42;1733938;82;21654;-56
2020/12/15 02:31:51;;;;;;;28.38;17.95;;;;;;;4.06;69.43;101022.64;1754788;81;22083;-56
2020/12/15 02:34:20;;;;;;;30.12;18.67;;;;;;;4.04;69.44;101015.27;1731694;82;21496;-57
2020/12/15 02:36:48;;;;;;;31.77;18.37;;;;;;;4.04;69.46;101021.48;1729811;83;21008;-57
2020/12/15 02:39:20;;;;;;;29.75;19.10;;;;;;;4.05;69.50;101015.57;1711197;83;21541;-57
2020/12/15 02:41:53;;;;;;;30.92;18.37;;;;;;;4.04;69.54;101013.40;1726367;83;21507;-56
2020/12/15 02:44:23;;;;;;;29.67;17.98;;;;;;;4.06;69.57;101012.69;1711602;83;21444;-58
2020/12/15 02:46:53;;;;;;;30.30;17.32;;;;;;;4.07;69.47;101020.25;1728221;81;20956;-57
2020/12/15 02:49:22;;;;;;;30.15;17.50;;;;;;;4.04;69.49;101017.44;1710511;83;20956;-57
2020/12/15 02:51:51;;;;;;;29.27;17.32;;;;;;;4.04;69.54;101013.40;1729212;83;20929;-56
2020/12/15 02:54:21;;;;;;;27.55;17.00;;;;;;;4.04;69.56;101013.92;1709272;83;21615;-57
2020/12/15 02:56:48;;;;;;;30.68;18.55;;;;;;;4.04;69.55;101013.40;1728798;83;21806;-56
2020/12/15 02:59:17;;;;;;;29.23;18.15;;;;;;;4.03;69.56;101013.09;1711082;83;21176;-56
2020/12/15 03:01:46;;;;;;;28.42;17.77;;;;;;;4.00;69.49;101012.14;1729307;83;21086;-56
2020/12/15 03:04:14;;;;;;;27.73;18.10;;;;;;;4.04;69.54;101012.57;1710968;83;21512;-58
2020/12/15 03:06:44;;;;;;;30.90;19.62;;;;;;;4.06;69.48;101020.77;1729210;83;20941;-56
2020/12/15 03:09:14;;;;;;;30.48;17.95;;;;;;;4.07;69.49;101017.56;1710602;83;21296;-56
2020/12/15 03:11:44;;;;;;;28.90;17.70;;;;;;;4.10;69.45;101019.82;1727785;83;20972;-55
2020/12/15 03:14:13;;;;;;;25.52;16.65;;;;;;;4.11;69.37;101028.23;1709341;83;21010;-57
2020/12/15 03:16:42;;;;;;;30.95;18.23;;;;;;;4.10;69.33;101020.65;1728892;83;21520;-56
2020/12/15 03:19:10;;;;;;;30.37;16.82;;;;;;;4.09;69.26;101022.20;1710943;83;20942;-58
2020/12/15 03:21:38;;;;;;;24.35;16.27;;;;;;;4.09;69.23;101014.95;1729014;83;21511;-56
2020/12/15 03:24:06;;;;;;;26.95;17.37;;;;;;;4.07;69.28;101017.04;1710955;83;21535;-56
2020/12/15 03:26:35;;;;;;;29.92;17.40;;;;;;;4.08;69.25;101020.03;1729220;83;21062;-57
2020/12/15 03:29:05;;;;;;;31.77;18.52;;;;;;;4.08;69.17;101026.77;1710838;83;21992;-56
2020/12/15 03:31:33;;;;;;;28.57;17.77;;;;;;;4.09;69.20;101023.55;1729302;83;21068;-55
2020/12/15 03:34:01;;;;;;;29.77;17.92;;;;;;;4.08;69.20;101026.77;1687091;83;21445;-57
2020/12/15 03:36:30;;;;;;;27.75;17.12;;;;;;;4.08;69.21;101023.25;1741410;82;20962;-58
2020/12/15 03:38:59;;;;;;;28.87;16.87;;;;;;;4.08;69.21;101024.08;1780035;80;21141;-57
2020/12/15 03:41:28;;;;;;;28.07;17.52;;;;;;;4.08;69.26;101030.80;1780708;80;21024;-57
2020/12/15 03:44:07;;;;;;;23.77;15.77;;;;;;;4.11;69.26;101022.33;1873399;76;22676;-56
2020/12/15 03:46:37;;;;;;;26.15;16.42;;;;;;;4.08;69.28;101041.58;1840197;78;20939;-57
2020/12/15 03:49:06;;;;;;;29.02;17.65;;;;;;;4.06;69.33;101043.66;1841445;77;21372;-56
2020/12/15 03:51:35;;;;;;;30.20;17.35;;;;;;;4.06;69.34;101046.35;1840987;78;21062;-57
2020/12/15 03:54:21;;;;;;;;;;;;;;;4.07;69.36;101048.00;1844093;78;21557;-57
2020/12/15 03:56:53;;;;;;;27.27;17.10;;;;;;;4.09;69.44;101050.48;1831596;78;20230;-56
2020/12/15 03:59:21;;;;;;;28.92;17.48;;;;;;;4.09;69.45;101056.70;1841336;78;20994;-57
2020/12/15 04:01:49;;;;;;;28.83;17.65;;;;;;;4.09;69.39;101050.48;1841135;78;21319;-55
2020/12/15 04:04:17;;;;;;;28.73;17.50;;;;;;;4.08;69.29;101055.05;1841250;77;21951;-54
2020/12/15 04:06:44;;;;;;;26.70;17.60;;;;;;;4.06;69.33;101061.16;1841505;78;20927;-56
2020/12/15 04:09:14;;;;;;;29.67;17.50;;;;;;;4.07;69.38;101067.37;1840340;77;20958;-55
2020/12/15 04:11:42;;;;;;;26.30;17.07;;;;;;;4.04;69.29;101071.30;1841286;78;20931;-55
2020/12/15 04:14:12;;;;;;;30.65;18.17;;;;;;;4.02;69.36;101076.59;1826311;77;21112;-55
2020/12/15 04:16:41;;;;;;;29.72;17.37;;;;;;;3.99;69.43;101071.08;1808472;79;21553;-55
2020/12/15 04:19:11;;;;;;;27.77;18.37;;;;;;;4.03;69.45;101074.20;1807953;79;21068;-56
2020/12/15 04:21:39;;;;;;;28.00;17.05;;;;;;;4.03;69.40;101072.33;1808096;79;21206;-56
2020/12/15 04:24:08;;;;;;;30.15;19.52;;;;;;;4.03;69.47;101076.89;1808105;79;20986;-55
2020/12/15 04:26:38;;;;;;;27.95;17.50;;;;;;;4.05;69.46;101077.50;1802637;79;21620;-57
2020/12/15 04:29:08;;;;;;;30.17;17.55;;;;;;;4.06;69.40;101085.41;1748484;82;21019;-57
2020/12/15 04:31:54;;;;;;;26.70;16.60;;;;;;;4.11;69.36;101086.14;1873341;75;22742;-56
2020/12/15 04:34:22;;;;;;;27.65;17.10;;;;;;;4.06;69.35;101092.66;1838388;76;21493;-56
2020/12/15 04:36:50;;;;;;;28.25;16.40;;;;;;;4.06;69.33;101096.17;1841379;78;22307;-56
2020/12/15 04:39:20;;;;;;;26.48;16.67;;;;;;;4.05;69.36;101095.84;1833294;77;20974;-57
2020/12/15 04:41:49;;;;;;;27.52;18.07;;;;;;;4.07;69.38;101095.13;1822745;78;20990;-56
2020/12/15 04:44:17;;;;;;;28.83;18.10;;;;;;;4.08;69.37;101098.13;1760387;80;21020;-56
2020/12/15 04:47:18;;;;;;;28.50;16.82;;;;;;;4.10;69.37;101101.95;1758646;81;20988;-57
2020/12/15 04:50:07;;;;;;;24.10;15.65;;;;;;;4.11;69.33;101097.73;1785998;79;21332;-57
2020/12/15 04:52:58;;;;;;;24.40;14.80;;;;;;;4.14;69.19;101093.78;1888373;76;22757;-55
2020/12/15 04:55:40;;;;;;;26.20;15.13;;;;;;;4.09;69.17;101098.44;1768057;80;21036;-54
2020/12/15 04:58:08;;;;;;;24.10;15.10;;;;;;;4.07;69.18;101092.96;1727986;81;21391;-53
2020/12/15 05:00:38;;;;;;;25.70;15.03;;;;;;;4.07;69.20;101099.69;1761947;80;20996;-54
2020/12/15 05:03:07;;;;;;;24.47;15.75;;;;;;;4.07;69.27;101101.04;1791157;78;21003;-56
2020/12/15 05:05:37;;;;;;;22.02;15.60;;;;;;;4.10;69.29;101110.86;1776268;80;21165;-57
2020/12/15 05:08:06;;;;;;;23.80;15.93;;;;;;;4.12;69.30;101108.81;1748887;82;21179;-57
2020/12/15 05:10:46;;;;;;;24.60;16.37;;;;;;;4.18;69.24;101117.94;1909485;74;23345;-59
2020/12/15 05:13:34;;;;;;;26.12;15.80;;;;;;;4.15;69.12;101120.51;1851099;76;21028;-58
2020/12/15 05:16:03;;;;;;;24.70;16.10;;;;;;;4.15;69.14;101123.72;1806888;79;21214;-59
2020/12/15 05:18:47;;;;;;;22.83;14.87;;;;;;;4.16;69.14;101119.50;1873014;75;22620;-58
2020/12/15 05:21:17;;;;;;;23.70;14.75;;;;;;;4.12;69.19;101124.98;1839758;78;21018;-57
2020/12/15 05:23:50;;;;;;;25.68;15.60;;;;;;;4.14;69.16;101130.15;1841224;78;22285;-56
2020/12/15 05:26:25;;;;;;;22.60;15.43;;;;;;;4.16;69.14;101132.14;1841245;78;21026;-56
2020/12/15 05:29:07;;;;;;;23.50;15.78;;;;;;;4.16;69.11;101132.14;1841479;77;20923;-57
2020/12/15 05:31:40;;;;;;;24.47;15.98;;;;;;;4.19;69.08;101132.23;1840749;77;20978;-59
2020/12/15 05:34:26;;;;;;;25.80;15.98;;;;;;;4.20;69.11;101129.33;1841189;78;21021;-57
2020/12/15 05:37:15;;;;;;;25.35;16.65;;;;;;;4.22;69.13;101135.88;1841332;78;21354;-59
2020/12/15 05:40:02;;;;;;;24.98;16.07;;;;;;;4.23;69.15;101132.97;1793880;78;28628;-55
2020/12/15 05:42:31;;;;;;;25.23;16.05;;;;;;;4.24;69.05;101134.63;1838838;78;20983;-55
2020/12/15 05:44:59;;;;;;;23.40;15.68;;;;;;;4.26;68.93;101138.45;1840230;77;21061;-55
2020/12/15 05:47:28;;;;;;;25.00;15.30;;;;;;;4.22;68.90;101139.92;1810899;78;21105;-55
2020/12/15 05:49:58;;;;;;;22.65;14.93;;;;;;;4.21;68.94;101136.88;1839477;78;22278;-54
2020/12/15 05:52:28;;;;;;;21.73;14.18;;;;;;;4.22;68.91;101149.34;1841206;78;21592;-55
2020/12/15 05:55:09;;;;;;;22.42;15.05;;;;;;;4.21;68.88;101142.27;1840954;78;21102;-55
2020/12/15 05:57:36;;;;;;;24.92;15.72;;;;;;;4.21;68.90;101144.97;1840200;78;21573;-56
2020/12/15 06:00:10;;;;;;;24.02;16.67;;;;;;;4.21;68.93;101143.13;1840361;77;21106;-58
2020/12/15 06:02:42;;;;;;;22.85;15.03;;;;;;;4.25;68.87;101150.27;1840585;77;21425;-56
2020/12/15 06:05:10;;;;;;;25.37;16.20;;;;;;;4.24;68.79;101151.30;1840516;77;21041;-56
2020/12/15 06:07:38;;;;;;;24.10;16.70;;;;;;;4.22;68.79;101154.21;1810390;78;21002;-56
2020/12/15 06:10:06;;;;;;;23.83;16.02;;;;;;;4.23;68.75;101155.04;1840572;78;21101;-57
2020/12/15 06:12:33;;;;;;;22.58;15.38;;;;;;;4.23;68.69;101168.51;1840785;78;20987;-57
2020/12/15 06:15:03;;;;;;;25.05;16.00;;;;;;;4.20;68.70;101173.77;1815117;77;21324;-58
2020/12/15 06:17:31;;;;;;;22.07;15.35;;;;;;;4.20;68.78;101182.37;1808006;79;21143;-56
2020/12/15 06:20:00;;;;;;;23.57;14.85;;;;;;;4.20;68.80;101183.20;1807631;79;21022;-58
2020/12/15 06:22:28;;;;;;;24.35;15.55;;;;;;;4.20;68.84;101186.41;1807910;79;21595;-56
2020/12/15 06:24:57;;;;;;;22.32;15.43;;;;;;;4.21;68.88;101190.27;1798886;79;21072;-55
2020/12/15 06:27:31;;;;;;;23.15;15.28;;;;;;;4.22;68.91;101194.62;1795400;80;21359;-54
2020/12/15 06:29:59;;;;;;;23.27;14.95;;;;;;;4.22;68.96;101200.00;1794513;79;21069;-55
2020/12/15 06:32:27;;;;;;;22.15;14.38;;;;;;;4.23;68.95;101196.80;1794780;80;21155;-56
2020/12/15 06:34:55;;;;;;;22.22;15.08;;;;;;;4.23;68.92;101202.18;1794945;80;20929;-56
2020/12/15 06:37:24;;;;;;;20.82;14.58;;;;;;;4.21;68.97;101201.05;1794854;80;21551;-55
2020/12/15 06:39:59;;;;;;;20.12;14.07;;;;;;;4.20;68.96;101214.17;1795179;80;21962;-56
2020/12/15 06:42:27;;;;;;;21.73;14.00;;;;;;;4.20;69.05;101217.39;1795117;80;20985;-55
2020/12/15 06:45:08;;;;;;;21.17;14.50;;;;;;;4.23;68.97;101218.34;1795045;80;20953;-53
2020/12/15 06:47:37;;;;;;;23.12;15.35;;;;;;;4.24;69.02;101217.30;1795086;80;20953;-52
2020/12/15 06:50:18;;;;;;;22.25;14.93;;;;;;;4.24;69.07;101228.91;1794959;80;21052;-53
2020/12/15 06:52:46;;;;;;;20.30;14.33;;;;;;;4.26;69.04;101222.81;1794971;80;21304;-54
2020/12/15 06:55:14;;;;;;;20.48;14.15;;;;;;;4.28;69.04;101236.91;1777402;80;21025;-55
2020/12/15 06:57:42;;;;;;;21.68;14.65;;;;;;;4.29;69.05;101233.17;1794667;80;21151;-58
2020/12/15 07:00:12;;;;;;;21.35;15.32;;;;;;;4.30;69.03;101236.17;1793990;78;21012;-56
2020/12/15 07:02:44;;;;;;;20.62;13.90;;;;;;;4.29;69.08;101226.95;1794658;80;21828;-57
2020/12/15 07:05:26;;;;;;;21.60;14.47;;;;;;;4.29;69.06;101233.69;1775424;80;21330;-56
2020/12/15 07:07:55;;;;;;;22.65;14.47;;;;;;;4.27;69.05;101228.52;1794441;79;21111;-57
2020/12/15 07:10:26;;;;;;;20.77;15.35;;;;;;;4.27;69.07;101224.47;1794236;80;21037;-56
2020/12/15 07:12:58;;;;;;;22.32;14.95;;;;;;;4.31;69.07;101229.77;1751815;80;21623;-56
2020/12/15 07:15:28;;;;;;;22.20;14.60;;;;;;;4.31;69.15;101224.88;1794361;78;21139;-56
2020/12/15 07:17:56;;;;;;;22.85;14.45;;;;;;;4.32;69.16;101226.04;1795750;79;21531;-56
2020/12/15 07:20:23;;;;;;;26.50;16.02;;;;;;;4.34;69.16;101220.44;1797988;79;20992;-56
2020/12/15 07:22:52;;;;;;;22.32;14.83;;;;;;;4.35;69.17;101224.27;1798072;79;21111;-57
2020/12/15 07:25:21;;;;;;;21.85;14.40;;;;;;;4.36;69.14;101228.65;1797877;79;20942;-56
2020/12/15 07:27:49;;;;;;;22.07;14.28;;;;;;;4.37;69.15;101233.00;1796934;79;21206;-57
2020/12/15 07:30:19;;;;;;;20.27;14.50;;;;;;;4.39;69.18;101236.83;1797970;79;21368;-57
2020/12/15 07:32:48;;;;;;;21.02;14.13;;;;;;;4.39;69.23;101239.52;1798300;79;20953;-58
2020/12/15 07:35:24;;;;;;;22.15;15.00;;;;;;;4.40;69.21;101238.48;1798204;78;20948;-56
2020/12/15 07:37:56;;;;;;;19.92;14.65;;;;;;;4.44;69.28;101243.79;1798160;79;21827;-57
2020/12/15 07:40:28;;;;;;;20.72;15.32;;;;;;;4.46;69.29;101243.09;1798216;79;21028;-56
2020/12/15 07:43:02;;;;;;;20.68;14.50;;;;;;;4.48;69.23;101245.57;1796876;79;21138;-55
2020/12/15 07:45:32;;;;;;;21.27;15.38;;;;;;;4.46;69.25;101248.48;1798104;79;21155;-54
2020/12/15 07:48:05;;;;;;;20.52;14.98;;;;;;;4.45;69.26;101248.66;1797991;79;21590;-52
2020/12/15 07:50:33;;;;;;;21.37;14.75;;;;;;;4.46;69.30;101257.05;1797977;79;21112;-55
2020/12/15 07:53:12;;;;;;;21.20;14.45;;;;;;;4.46;69.31;101256.56;1784633;79;21139;-53
2020/12/15 07:55:40;;;;;;;20.08;13.68;;;;;;;4.46;69.29;101251.17;1797926;79;21191;-56
2020/12/15 07:58:15;;;;;;;20.92;14.35;;;;;;;4.45;69.29;101249.48;1797899;79;21842;-56
2020/12/15 08:00:44;;;;;;;19.57;14.33;;;;;;;4.46;69.35;101251.66;1793356;79;21154;-58
2020/12/15 08:03:14;;;;;;;20.43;13.90;;;;;;;4.49;69.43;101253.97;1798156;79;20985;-60
2020/12/15 08:05:43;;;;;;;21.37;14.53;;;;;;;4.52;69.44;101261.66;1759926;79;21207;-58
2020/12/15 08:08:14;;;;;;;20.32;14.20;;;;;;;4.53;69.43;101256.57;1797548;79;21178;-59
2020/12/15 08:10:42;;;;;;;20.20;15.28;;;;;;;4.54;69.49;101259.05;1797695;79;21036;-55
2020/12/15 08:13:11;;;;;;;19.00;13.72;;;;;;;4.58;69.47;101260.84;1797872;78;21555;-60
2020/12/15 08:15:41;;;;;;;19.75;14.78;;;;;;;4.60;69.32;101264.97;1759441;79;21111;-56
2020/12/15 08:18:11;;;;;;;19.57;13.88;;;;;;;4.61;69.31;101268.00;1797662;79;21602;-57
2020/12/15 08:20:44;;;;;;;21.42;13.05;;;;;;;4.63;69.26;101267.80;1791079;78;21364;-58
2020/12/15 08:23:13;;;;;;;20.60;14.38;;;;;;;4.65;69.25;101267.06;1778822;79;21044;-57
2020/12/15 08:25:46;;;;;;;19.42;13.55;;;;;;;4.63;69.25;101264.58;1801219;79;21116;-58
2020/12/15 08:28:23;;;;;;;21.00;13.93;;;;;;;4.67;69.37;101268.53;1808672;79;21618;-59
2020/12/15 08:30:56;;;;;;;21.05;14.25;;;;;;;4.70;69.37;101261.89;1800440;79;21147;-60
2020/12/15 08:33:28;;;;;;;20.25;14.45;;;;;;;4.73;69.35;101264.70;1800298;79;21499;-57
2020/12/15 08:35:59;;;;;;;20.45;13.70;;;;;;;4.77;69.28;101259.23;1800595;79;20977;-61
2020/12/15 08:38:27;;;;;;;23.67;14.15;;;;;;;4.80;69.19;101259.63;1783594;79;21162;-60
2020/12/15 08:41:00;;;;;;;20.12;13.58;;;;;;;4.82;69.13;101265.66;1811203;78;20994;-61
2020/12/15 08:43:30;;;;;;;19.62;13.83;;;;;;;4.84;69.11;101261.41;1791394;79;21204;-59
2020/12/15 08:45:58;;;;;;;20.97;14.70;;;;;;;4.85;69.19;101261.19;1816015;78;22240;-56
2020/12/15 08:48:27;;;;;;;21.17;14.70;;;;;;;4.86;69.21;101255.28;1815664;78;21548;-59
2020/12/15 08:50:58;;;;;;;20.12;14.50;;;;;;;4.86;69.24;101255.28;1815895;79;21038;-60
2020/12/15 08:53:26;;;;;;;20.15;14.35;;;;;;;4.87;69.16;101257.79;1815827;78;20931;-60
2020/12/15 08:55:56;;;;;;;21.33;14.55;;;;;;;4.89;69.23;101256.23;1766464;79;21081;-60
2020/12/15 08:58:27;;;;;;;18.37;13.68;;;;;;;4.89;69.17;101253.01;1815865;79;21359;-57
2020/12/15 09:00:57;;;;;;;19.07;13.60;;;;;;;4.90;69.16;101260.06;1815645;78;20923;-59
2020/12/15 09:03:26;;;;;;;20.23;13.62;;;;;;;4.90;69.17;101256.02;1815635;79;21564;-54
2020/12/15 09:05:56;;;;;;;20.75;14.38;;;;;;;4.90;69.15;101257.36;1815830;78;21214;-53
2020/12/15 09:08:28;;;;;;;18.07;13.18;;;;;;;4.91;69.07;101260.89;1815942;78;21588;-56
2020/12/15 09:10:58;;;;;;;24.55;13.15;;;;;;;4.92;69.18;101255.31;1815778;78;21418;-55
2020/12/15 09:13:27;;;;;;;18.60;14.05;;;;;;;4.93;69.14;101255.61;1815559;78;20954;-54
2020/12/15 09:15:57;;;;;;;18.07;13.50;;;;;;;4.95;69.15;101256.75;1815669;79;20907;-57
2020/12/15 09:18:38;;;;;;;19.77;13.03;;;;;;;4.97;69.20;101250.65;1813297;78;21120;-56
2020/12/15 09:21:12;;;;;;;19.12;14.25;;;;;;;5.00;69.02;101259.66;1807412;78;21370;-56
2020/12/15 09:23:53;;;;;;;18.32;13.38;;;;;;;5.01;68.90;101258.61;1807379;79;21364;-57
2020/12/15 09:26:22;;;;;;;19.70;14.13;;;;;;;5.00;68.85;101256.95;1807054;79;21136;-58
2020/12/15 09:28:51;;;;;;;21.42;15.00;;;;;;;4.98;69.00;101252.82;1807442;78;21073;-52
2020/12/15 09:31:19;;;;;;;18.57;14.05;;;;;;;4.99;69.11;101256.66;1807098;79;21057;-56
2020/12/15 09:36:22;;;;;;;19.43;13.90;;;;;;;5.02;69.36;101254.05;1812840;79;22704;-59
2020/12/15 09:38:51;;;;;;;20.02;13.90;;;;;;;4.98;69.28;101251.48;1783690;80;21114;-59
2020/12/15 09:41:19;;;;;;;19.90;13.30;;;;;;;4.98;69.33;101253.65;1783234;80;21327;-58
2020/12/15 09:43:47;;;;;;;21.75;15.55;;;;;;;5.01;69.14;101254.56;1755399;80;21587;-56
2020/12/15 09:46:17;;;;;;;20.50;15.20;;;;;;;5.00;69.06;101250.22;1755723;80;21464;-52
2020/12/15 09:48:46;;;;;;;23.57;15.30;;;;;;;5.01;69.34;101251.05;1783440;80;20941;-54
2020/12/15 09:51:14;;;;;;;20.97;15.00;;;;;;;5.02;69.29;101252.21;1783544;80;20957;-54
2020/12/15 09:53:43;;;;;;;21.65;15.03;;;;;;;5.05;69.38;101249.08;1783565;80;21137;-57
2020/12/15 09:56:18;;;;;;;20.45;14.33;;;;;;;5.05;69.15;101251.77;1783473;80;21072;-50
2020/12/15 09:58:47;;;;;;;19.82;13.28;;;;;;;5.03;69.12;101249.81;1783558;80;21012;-57
2020/12/15 10:01:17;;;;;;;22.80;15.20;;;;;;;5.02;69.19;101250.86;1783221;80;21558;-53
2020/12/15 10:03:46;;;;;;;21.27;14.47;;;;;;;5.04;69.20;101252.81;1783733;80;21131;-61
2020/12/15 10:06:15;;;;;;;20.32;14.80;;;;;;;5.07;69.22;101252.91;1783446;80;23654;-63
2020/12/15 10:08:44;;;;;;;23.60;15.70;;;;;;;5.10;69.25;101249.28;1783306;80;21206;-61
2020/12/15 10:11:16;;;;;;;21.77;15.20;;;;;;;5.14;69.08;101249.19;1755609;80;20956;-59
2020/12/15 10:13:45;;;;;;;21.30;15.50;;;;;;;5.16;68.93;101249.80;1776865;79;21606;-64
2020/12/15 10:16:15;;;;;;;20.52;15.30;;;;;;;5.18;68.80;101241.00;1752388;81;20952;-62
2020/12/15 10:18:43;;;;;;;23.87;16.62;;;;;;;5.20;68.74;101242.96;1752258;81;23596;-58
2020/12/15 10:21:12;;;;;;;21.85;15.45;;;;;;;5.21;68.54;101241.09;1752639;81;21126;-63
2020/12/15 10:23:42;;;;;;;21.57;14.83;;;;;;;5.19;68.50;101242.66;1752431;80;21027;-61
2020/12/15 10:26:11;;;;;;;19.67;14.55;;;;;;;5.19;68.73;101248.05;1752479;81;21036;-60
2020/12/15 10:28:41;;;;;;;19.00;14.90;;;;;;;5.21;68.62;101245.13;1752459;81;21050;-62
2020/12/15 10:31:11;;;;;;;21.52;14.63;;;;;;;5.19;68.65;101249.40;1725776;81;21382;-60
2020/12/15 10:33:40;;;;;;;19.95;15.38;;;;;;;5.20;68.49;101242.96;1752382;81;21181;-60
2020/12/15 10:36:11;;;;;;;21.12;14.73;;;;;;;5.12;68.55;101238.28;1748449;81;21070;-62
2020/12/15 10:38:40;;;;;;;21.37;15.88;;;;;;;5.21;68.54;101255.92;1747712;82;21166;-62
2020/12/15 10:41:08;;;;;;;21.05;15.08;;;;;;;5.19;68.75;101252.09;1747851;82;21020;-58
2020/12/15 10:43:36;;;;;;;23.65;15.83;;;;;;;5.18;68.72;101246.92;1747642;82;21107;-59
2020/12/15 10:46:06;;;;;;;21.60;14.70;;;;;;;5.17;68.73;101244.74;1743485;82;21155;-60
2020/12/15 10:48:35;;;;;;;24.27;16.62;;;;;;;5.18;68.76;101245.57;1747303;82;21603;-63
2020/12/15 10:51:03;;;;;;;22.65;14.35;;;;;;;5.18;68.58;101246.92;1746996;82;21276;-60
2020/12/15 10:53:31;;;;;;;24.27;15.80;;;;;;;5.17;68.61;101248.79;1746801;82;21072;-60
2020/12/15 10:55:59;;;;;;;25.43;17.10;;;;;;;5.18;68.46;101255.02;1747289;82;21879;-57
2020/12/15 10:58:28;;;;;;;24.92;16.50;;;;;;;5.16;68.54;101254.37;1746977;82;20996;-60
2020/12/15 11:00:57;;;;;;;25.30;15.98;;;;;;;5.16;68.54;101253.85;1747164;82;20942;-62
2020/12/15 11:03:25;;;;;;;23.38;16.73;;;;;;;5.16;68.54;101256.55;1746968;82;21203;-60
2020/12/15 11:05:54;;;;;;;24.80;17.35;;;;;;;5.17;68.65;101259.58;1722109;82;21630;-60
2020/12/15 11:08:22;;;;;;;25.17;16.90;;;;;;;5.18;68.62;101265.80;1747106;82;21207;-59
2020/12/15 11:10:50;;;;;;;27.32;16.85;;;;;;;5.18;68.67;101262.58;1747109;82;21009;-60
2020/12/15 11:13:19;;;;;;;24.67;16.62;;;;;;;5.19;68.53;101262.89;1747061;80;21004;-62
2020/12/15 11:15:47;;;;;;;23.83;16.48;;;;;;;5.18;68.68;101261.23;1746956;82;21150;-61
2020/12/15 11:18:16;;;;;;;27.80;18.52;;;;;;;5.17;68.65;101264.98;1747133;80;20933;-60
2020/12/15 11:20:45;;;;;;;27.42;17.73;;;;;;;5.18;68.72;101265.80;1747066;82;21294;-59
2020/12/15 11:23:12;;;;;;;27.70;19.02;;;;;;;5.18;68.71;101270.68;1747017;82;21146;-61
2020/12/15 11:25:42;;;;;;;26.00;18.98;;;;;;;5.20;68.82;101273.16;1747117;82;21135;-58
2020/12/15 11:28:11;;;;;;;29.37;19.27;;;;;;;5.21;68.93;101273.47;1747074;82;21558;-58
2020/12/15 11:30:40;;;;;;;27.30;18.50;;;;;;;5.21;68.89;101268.89;1747021;82;21004;-57
2020/12/15 11:33:07;;;;;;;28.10;19.10;;;;;;;5.23;68.84;101275.45;1747268;82;21442;-58
2020/12/15 11:35:37;;;;;;;29.95;18.40;;;;;;;5.24;68.85;101279.81;1743194;82;20925;-61